createdAt,value
2023-03-07T00:00:57.569Z,-0.9
2023-03-07T00:05:57.589Z,-0.9
2023-03-07T00:10:57.580Z,-0.9
2023-03-07T00:15:56.905Z,-0.9
2023-03-07T00:20:57.506Z,-0.9
2023-03-07T00:25:56.828Z,-0.9
2023-03-07T00:30:56.808Z,-0.9
2023-03-07T00:35:57.061Z,-0.9
2023-03-07T00:40:56.822Z,-0.9
2023-03-07T00:45:56.838Z,-0.9
2023-03-07T00:50:56.881Z,-0.9
2023-03-07T00:55:58.075Z,-0.9
2023-03-07T01:00:56.812Z,-0.8
2023-03-07T01:05:56.776Z,-0.8
2023-03-07T01:10:56.673Z,-0.8
2023-03-07T01:15:56.736Z,-0.8
2023-03-07T01:20:56.884Z,-0.8
2023-03-07T01:25:56.760Z,-0.8
2023-03-07T01:30:56.956Z,-0.7
2023-03-07T01:35:56.866Z,-0.7
2023-03-07T01:40:56.776Z,-0.7
2023-03-07T01:45:56.885Z,-0.6
2023-03-07T01:50:56.645Z,-0.6
2023-03-07T01:55:56.717Z,-0.6
2023-03-07T02:00:56.843Z,-0.5
2023-03-07T02:05:56.623Z,-0.5
2023-03-07T02:10:56.611Z,-0.5
2023-03-07T02:15:56.723Z,-0.5
2023-03-07T02:20:56.587Z,-0.4
2023-03-07T02:25:56.581Z,-0.4
2023-03-07T02:30:56.794Z,-0.4
2023-03-07T02:35:56.644Z,-0.4
2023-03-07T02:40:56.550Z,-0.4
2023-03-07T02:45:56.726Z,-0.4
2023-03-07T02:50:56.544Z,-0.4
2023-03-07T02:55:56.503Z,-0.4
2023-03-07T03:00:56.644Z,-0.4
2023-03-07T03:05:56.567Z,-0.4
2023-03-07T03:10:57.592Z,-0.4
2023-03-07T03:15:56.763Z,-0.4
2023-03-07T03:20:56.534Z,-0.3
2023-03-07T03:25:56.536Z,-0.3
2023-03-07T03:30:56.710Z,-0.3
2023-03-07T03:35:56.619Z,-0.3
2023-03-07T03:40:56.476Z,-0.3
2023-03-07T03:45:56.464Z,-0.3
2023-03-07T03:50:56.666Z,-0.3
2023-03-07T03:55:56.472Z,-0.3
2023-03-07T04:01:03.740Z,-0.3
2023-03-07T04:05:56.547Z,-0.3
2023-03-07T04:10:56.556Z,-0.3
2023-03-07T04:15:56.399Z,-0.2
2023-03-07T04:20:56.374Z,-0.2
2023-03-07T04:25:56.544Z,-0.2
2023-03-07T04:30:56.475Z,-0.2
2023-03-07T04:35:56.394Z,-0.2
2023-03-07T04:40:56.338Z,-0.2
2023-03-07T04:45:56.399Z,-0.2
2023-03-07T04:51:03.590Z,-0.2
2023-03-07T04:56:03.618Z,-0.2
2023-03-07T05:01:03.867Z,-0.3
2023-03-07T05:06:03.900Z,-0.3
2023-03-07T05:11:03.633Z,-0.3
2023-03-07T05:16:03.847Z,-0.3
2023-03-07T05:21:04.045Z,-0.3
2023-03-07T05:26:03.578Z,-0.3
2023-03-07T05:31:03.707Z,-0.3
2023-03-07T05:36:03.603Z,-0.3
2023-03-07T05:41:03.609Z,-0.3
2023-03-07T05:46:03.681Z,-0.3
2023-03-07T05:51:03.528Z,-0.3
2023-03-07T05:56:03.396Z,-0.4
2023-03-07T06:01:04.377Z,-0.4
2023-03-07T06:06:04.460Z,-0.5
2023-03-07T06:11:03.493Z,-0.5
2023-03-07T06:16:03.619Z,-0.5
2023-03-07T06:21:03.981Z,-0.6
2023-03-07T06:26:03.715Z,-0.5
2023-03-07T06:31:03.453Z,-0.5
2023-03-07T06:36:03.515Z,-0.4
2023-03-07T06:41:03.520Z,-0.3
2023-03-07T06:46:04.574Z,-0.2
2023-03-07T06:51:03.575Z,-0.1
2023-03-07T06:56:03.452Z,0.0
2023-03-07T07:01:03.674Z,0.1
2023-03-07T07:06:03.983Z,0.3
2023-03-07T07:11:03.576Z,0.4
2023-03-07T07:16:03.491Z,0.6
2023-03-07T07:21:03.407Z,0.8
2023-03-07T07:26:03.809Z,0.9
2023-03-07T07:31:03.247Z,1.1
2023-03-07T07:36:03.318Z,1.3
2023-03-07T07:46:03.406Z,1.5
2023-03-07T07:51:03.242Z,1.9
2023-03-07T07:56:03.170Z,2.1
2023-03-07T08:01:03.328Z,2.2
2023-03-07T08:06:03.184Z,2.4
2023-03-07T08:11:03.152Z,2.4
2023-03-07T08:16:03.590Z,2.5
2023-03-07T08:21:03.137Z,2.6
2023-03-07T08:26:05.248Z,2.6
2023-03-07T08:31:03.253Z,2.7
2023-03-07T08:36:03.321Z,2.7
2023-03-07T08:41:03.252Z,2.7
2023-03-07T08:46:03.207Z,2.8
2023-03-07T08:51:03.085Z,2.8
2023-03-07T08:56:03.131Z,3.0
2023-03-07T09:01:03.160Z,3.0
2023-03-07T09:06:03.040Z,3.2
2023-03-07T09:11:03.065Z,3.3
2023-03-07T09:16:03.139Z,3.5
2023-03-07T09:21:03.045Z,3.7
2023-03-07T09:26:02.999Z,3.8
2023-03-07T09:31:03.249Z,3.8
2023-03-07T09:36:03.060Z,3.9
2023-03-07T09:41:02.982Z,4.1
2023-03-07T09:46:03.192Z,4.3
2023-03-07T09:51:11.366Z,4.4
2023-03-07T09:56:03.036Z,4.6
2023-03-07T10:01:03.104Z,4.5
2023-03-07T10:06:02.946Z,4.5
2023-03-07T10:11:02.959Z,4.3
2023-03-07T10:16:03.076Z,4.2
2023-03-07T10:21:02.889Z,4.1
2023-03-07T10:26:02.908Z,4.2
2023-03-07T10:31:03.051Z,4.3
2023-03-07T10:36:02.935Z,4.4
2023-03-07T10:41:02.935Z,4.6
2023-03-07T10:46:03.751Z,4.8
2023-03-07T10:51:02.862Z,4.9
2023-03-07T10:56:02.839Z,4.9
2023-03-07T11:01:03.060Z,4.9
2023-03-07T11:06:02.834Z,5.0
2023-03-07T11:11:03.041Z,5.0
2023-03-07T11:16:10.904Z,5.1
2023-03-07T11:21:02.741Z,5.2
2023-03-07T11:26:02.913Z,5.3
2023-03-07T11:31:03.061Z,5.4
2023-03-07T11:36:02.988Z,5.5
2023-03-07T11:41:02.741Z,5.4
2023-03-07T11:46:02.800Z,5.3
2023-03-07T11:51:02.742Z,5.3
2023-03-07T11:56:02.745Z,5.4
2023-03-07T12:06:02.763Z,5.5
2023-03-07T12:11:02.712Z,5.5
2023-03-07T12:16:02.911Z,5.4
2023-03-07T12:21:02.706Z,5.3
2023-03-07T12:26:02.654Z,5.3
2023-03-07T12:31:03.306Z,5.4
2023-03-07T12:36:02.940Z,5.3
2023-03-07T12:41:02.665Z,5.3
2023-03-07T12:46:02.837Z,5.4
2023-03-07T12:51:02.631Z,5.5
2023-03-07T12:56:02.672Z,5.6
2023-03-07T13:01:05.341Z,5.7
2023-03-07T13:06:02.729Z,5.7
2023-03-07T13:11:02.768Z,5.7
2023-03-07T13:16:02.731Z,5.7
2023-03-07T13:21:02.617Z,5.7
2023-03-07T13:26:02.631Z,5.7
2023-03-07T13:31:02.610Z,5.7
2023-03-07T13:36:02.562Z,5.9
2023-03-07T13:41:02.734Z,6.0
2023-03-07T13:46:02.670Z,6.0
2023-03-07T13:51:02.568Z,6.0
2023-03-07T13:56:02.659Z,6.0
2023-03-07T14:01:02.542Z,6.0
2023-03-07T14:06:02.493Z,5.9
2023-03-07T14:11:02.771Z,5.9
2023-03-07T14:16:02.695Z,5.9
2023-03-07T14:21:02.811Z,5.9
2023-03-07T14:26:02.780Z,5.9
2023-03-07T14:31:02.849Z,5.8
2023-03-07T14:36:02.702Z,5.7
2023-03-07T14:41:02.564Z,5.8
2023-03-07T14:46:02.493Z,5.7
2023-03-07T14:51:02.475Z,5.7
2023-03-07T14:56:02.576Z,5.7
2023-03-07T15:01:02.494Z,5.7
2023-03-07T15:06:02.391Z,5.6
2023-03-07T15:11:02.582Z,5.6
2023-03-07T15:16:02.544Z,5.5
2023-03-07T15:21:02.642Z,5.5
2023-03-07T15:26:02.702Z,5.5
2023-03-07T15:31:02.425Z,5.5
2023-03-07T15:36:02.469Z,5.5
2023-03-07T15:41:13.045Z,5.5
2023-03-07T15:46:02.871Z,5.5
2023-03-07T15:51:02.335Z,5.4
2023-03-07T16:01:02.334Z,5.3
2023-03-07T16:06:02.382Z,5.1
2023-03-07T16:11:02.483Z,5.0
2023-03-07T16:16:02.383Z,4.9
2023-03-07T16:21:02.311Z,4.8
2023-03-07T16:26:02.369Z,4.7
2023-03-07T16:31:02.333Z,4.6
2023-03-07T16:36:02.365Z,4.6
2023-03-07T16:41:02.420Z,4.6
2023-03-07T16:46:02.315Z,4.6
2023-03-07T16:51:12.432Z,4.5
2023-03-07T16:56:12.322Z,4.5
2023-03-07T17:01:12.341Z,4.5
2023-03-07T17:06:12.631Z,4.5
2023-03-07T17:11:12.493Z,4.4
2023-03-07T17:16:12.532Z,4.3
2023-03-07T17:21:12.288Z,4.2
2023-03-07T17:26:12.345Z,4.1
2023-03-07T17:31:12.414Z,3.9
2023-03-07T17:36:12.581Z,3.8
2023-03-07T17:41:12.518Z,3.8
2023-03-07T17:46:12.284Z,3.7
2023-03-07T17:51:12.492Z,3.7
2023-03-07T17:56:12.329Z,3.6
2023-03-07T18:01:12.847Z,3.6
2023-03-07T18:06:12.741Z,3.6
2023-03-07T18:11:12.590Z,3.6
2023-03-07T18:16:12.373Z,3.7
2023-03-07T18:21:12.942Z,3.7
2023-03-07T18:26:12.169Z,3.7
2023-03-07T18:31:12.375Z,3.7
2023-03-07T18:36:12.234Z,3.6
2023-03-07T18:41:12.106Z,3.6
2023-03-07T18:46:12.113Z,3.6
2023-03-07T18:51:12.331Z,3.6
2023-03-07T18:56:12.100Z,3.5
2023-03-07T19:01:12.227Z,3.5
2023-03-07T19:06:13.834Z,3.4
2023-03-07T19:11:34.746Z,3.3
2023-03-07T19:16:12.147Z,3.3
2023-03-07T19:21:12.137Z,3.3
2023-03-07T19:26:13.264Z,3.3
2023-03-07T19:31:12.050Z,3.3
2023-03-07T19:36:12.042Z,3.3
2023-03-07T19:41:14.577Z,3.3
2023-03-07T19:46:12.284Z,3.3
2023-03-07T19:51:12.100Z,3.3
2023-03-07T19:56:12.099Z,3.3
2023-03-07T20:01:11.996Z,3.3
2023-03-07T20:06:12.253Z,3.3
2023-03-07T20:11:12.181Z,3.3
2023-03-07T20:16:12.072Z,3.3
2023-03-07T20:21:12.200Z,3.3
2023-03-07T20:26:11.890Z,3.3
2023-03-07T20:31:11.973Z,3.3
2023-03-07T20:36:12.026Z,3.4
2023-03-07T20:41:11.880Z,3.4
2023-03-07T20:46:12.903Z,3.5
2023-03-07T20:51:11.972Z,3.5
2023-03-07T20:56:11.856Z,3.5
2023-03-07T21:01:11.929Z,3.6
2023-03-07T21:06:12.122Z,3.6
2023-03-07T21:11:11.895Z,3.6
2023-03-07T21:16:11.886Z,3.7
2023-03-07T21:21:11.958Z,3.7
2023-03-07T21:26:11.908Z,3.7
2023-03-07T21:31:11.903Z,3.7
2023-03-07T21:36:14.253Z,3.8
2023-03-07T21:41:11.820Z,3.8
2023-03-07T21:46:11.848Z,3.8
2023-03-07T21:51:11.914Z,3.8
2023-03-07T21:56:23.699Z,3.8
2023-03-07T22:01:11.799Z,3.8
2023-03-07T22:06:11.731Z,3.8
2023-03-07T22:11:11.830Z,3.8
2023-03-07T22:16:11.781Z,3.8
2023-03-07T22:21:11.935Z,3.8
2023-03-07T22:26:11.716Z,3.8
2023-03-07T22:31:11.678Z,3.7
2023-03-07T22:36:11.803Z,3.7
2023-03-07T22:41:11.646Z,3.7
2023-03-07T22:46:11.753Z,3.7
2023-03-07T22:51:11.846Z,3.7
2023-03-07T22:56:11.641Z,3.7
2023-03-07T23:01:11.683Z,3.7
2023-03-07T23:06:11.791Z,3.8
2023-03-07T23:11:11.575Z,3.8
2023-03-07T23:16:11.852Z,3.8
2023-03-07T23:21:11.841Z,3.8
2023-03-07T23:26:11.631Z,3.8
2023-03-07T23:31:11.691Z,3.8
2023-03-07T23:36:12.776Z,3.8
2023-03-07T23:41:11.640Z,3.8
2023-03-07T23:46:11.761Z,3.8
2023-03-07T23:51:11.868Z,3.7
2023-03-07T23:56:11.615Z,3.7
